EGFF/CWL METAR and TAF weather

Enter ICAO airport designator
Station Type Date Time Source
EGFF METAR 2021/07/29 19:20 UTC NOAA

EGFF 291920Z AUTO VRB03KT 9999 BKN032 15/12 Q1008


Station Type Date Time Source
EGFF Decoded METAR 2021/07/29 19:20 UTC NOAA

Cardiff-Wales Airport, United Kingdom (EGFF) 51-24N 003-21W 0M
Jul 29, 2021 - 03:20 PM EDT / 2021.07.29 1920 UTC
Wind: Variable at 3 MPH (3 KT):0
Visibility: greater than 7 mile(s):0
Sky conditions: mostly cloudy
Temperature: 59 F (15 C)
Dew Point: 53 F (12 C)
Relative Humidity: 82%
Pressure (altimeter): 29.77 in. Hg (1008 hPa)
ob: EGFF 291920Z AUTO VRB03KT 9999 BKN032 15/12 Q1008
cycle: 19

Station Type Date Time Source
EGFF TAF 2021/07/29 18:06 UTC NOAA

TAF EGFF 291659Z 2918/3018 29006KT 9999 BKN030
BECMG 2918/2921 14014KT
TEMPO 2918/3012 7000 RA BKN014
TEMPO 2920/3005 16020G30KT PROB40
TEMPO 2920/2924 3000 +SHRA BKN006 PROB40
TEMPO 3003/3013 3000 +SHRA BKN008
BECMG 3005/3008 28020G30KT PROB30
TEMPO 3013/3018 5000 SHRA
BECMG 3015/3018 28012KT

Example: see airport list